Huvudsida
METAR-TAF:

METAR-TAF

Flygplatser :

Uppsala-Ärna flygplats

Uppsala, Sverige

latitud: 59-53N, longitud: 017-36E, höjd: 21 m

Aktuellt väderrapport

Denna rapport gjordes för 15 minuter sedan, klockan 19:20 UTC
Vind 4 kt från nordost
Temperatur 18°C
Fuktighet 64%
Tryck 1019 hPa
Sikt 10 km eller mer

METAR: ESCM 251920Z AUTO 04004KT 9999 ////// 18/11 Q1019

Tid: 21:35 (19:35 UTC)


TAF: saknas

Aktuella väderrapporter och prognoser från 4000 flygplatser (METAR- och TAF-rapporter).

De tillgängliga stationerna syns som gula och röda prickar på kartan.

För musen över prickarna för att se namnen på stationerna.

Klicka sedan för att få väderrapporter och prognoser.

För att ändra kartan: Klicka på de gröna knapparna med ett svart kors på för att zooma in; den gröna knappen med ett streck på för att zooma ut; eller på de gröna pilarna för angränsande kartor.


METAR-TAF: